AirNav   Air Wisconsin Up To $57,000 Bonus
 
 507 users online  

4WN3 Lakewood Airpark
Lakewood, Wisconsin, USA

GOING TO LAKEWOOD?


FAA INFORMATION EFFECTIVE 26 JANUARY 2023

Location

FAA Identifier: 4WN3
Lat/Long: 45-19-55.3867N 088-32-09.5858W
45-19.923112N 088-32.159763W
45.3320519,-88.5359961
(estimated)
Elevation: 1300 ft. / 396 m (estimated)
From city: 2 miles NNW of LAKEWOOD, WI
Time zone: UTC -6 (UTC -5 during Daylight Saving Time)
Zip code: 54138

Airport Operations

Airport use: Private use. Permission required prior to landing
Activation date: 09/2004
Control tower: no
ARTCC: MINNEAPOLIS CENTER
FSS: GREEN BAY FLIGHT SERVICE STATION
Attendance: UNATNDD
Wind indicator: yes
Segmented circle: no

Nearby radio navigation aids

VOR radial/distance  VOR name  Freq  Var
IMTr214/34.1IRON MOUNTAIN VOR/DME111.2002W

Airport Services

Runway Information

Runway 9/27

Dimensions: 2500 x 150 ft. / 762 x 46 m
Surface: turf
RUNWAY 9  RUNWAY 27
Traffic pattern: leftleft

Airport Ownership and Management from official FAA records

Ownership: Privately-owned
Owner: LAKEWOOD AIRPARK LLC
15539 CESSNA LANE
LAKEWOOD, WI 54139
Manager: PHIL HARTMAN
15539 CESSNA LANE
LAKEWOOD, WI 54139
Phone 715-850-1206

Additional Remarks

FOR CD CTC MINNEAPOLIS ARTCC AT 651-463-5588.

Instrument Procedures

There are no published instrument procedures at 4WN3.

Some nearby airports with instrument procedures:

Y55 - Crandon/Steve Conway Municipal Airport (20 nm NW)
KAIG - Langlade County Airport (27 nm SW)
KEZS - Shawano Municipal Airport (33 nm S)
KIMT - Ford Airport (34 nm NE)
KOCQ - Oconto/J Douglas Bake Municipal Airport (38 nm SE)
 
Loc | Ops | Rwys | IFR | FBO | Links
Com | Nav | Svcs | Stats | Notes
Area around 4WN3 (Lakewood Airpark)
 
Road maps at: MapQuest Bing Google
 
Aerial photo
WARNING: Photo may not be current or correct
Aerial photo of 4WN3 (Lakewood Airpark)
Photo by William Knauth
looking west.

Do you have a better or more recent aerial photo of Lakewood Airpark that you would like to share? If so, please send us your photo.

 
Sectional chart

 
Airport distance calculator
Flying to Lakewood Airpark? Find the distance to fly.

From to 4WN3

Sunrise and sunset
Times for 03-Feb-2023
 Local
(UTC-6)
 Zulu
(UTC)
Morning civil twilight06:4212:42
Sunrise07:1313:13
Sunset17:0323:03
Evening civil twilight17:3423:34

Current date and time
Zulu (UTC)  03-Feb-2023 08:39:55
Local (UTC-6)  03-Feb-2023 02:39:55
 
METAR
KAIG 
32nm SW 
030815Z AUTO 29010KT 10SM CLR M24/M28 A3038 RMK AO2 T12451280
KEZS 
33nm S 
715-526-2967
011355Z AUTO 00000KT 10SM CLR M17/M19 A3019 RMK AO2 T11701189
KIMT 
34nm NE 
030754Z AUTO 32008KT 10SM FEW030 M20/M24 A3033 RMK AO2 SLP303 T12001244 $
KOCQ 
38nm SE 
030815Z AUTO 29006KT 10SM CLR M20/M25 A3045 RMK AO1 T12001251
KMNM 
41nm E 
030757Z AUTO 10SM CLR M19/M24 A3043 RMK AO2 SLP329 T11941244 FZRANO PNO $
KRHI 
44nm NW 
030753Z AUTO 29008KT 10SM CLR M25/M28 A3036 RMK AO2 SLP330 T12501283
KCLI 
45nm S 
030815Z AUTO 31010KT 10SM CLR M21/M27 A3048 RMK AO2 T12061267
KEGV 
47nm NW 
030815Z AUTO 28009KT 10SM SCT024 M24/M28 A3034 RMK AO2 T12401276
TAF
KRHI 
44nm NW 
030520Z 0306/0406 30010KT P6SM SCT025 FM030900 29005KT P6SM SKC FM032200 22005KT P6SM SCT090 FM040000 19008KT P6SM -SHSN BKN070
NOTAMs
Click for the latest NOTAMs
NOTAMs are issued by the DoD/FAA and will open in a separate window not controlled by AirNav.

 

 
 

Would you like to see your business listed on this page?

 If your business provides an interesting product or service to pilots, flight crews, aircraft, or users of the Lakewood Airpark, you should consider listing it here.  To start the listing process, click on the button below
 
Add a business
 

Other Pages about Lakewood Airpark

Update a link
 
Copyright © AirNav, LLC. All rights reserved. Privacy Policy  Contact